Mid Delta Regional Airport
KGLH : now visible

Aeroporto :











RITROVATECI SU...

 
LOGIN :

Iscrizione | Disclaimer

   EN    FR    IT 

 









Sommario :    VFR   VFR Marginale   IFR   IFR Intensivo   IFR Molto Intensivo
Visibilità : 
Base nubi : 
>= 8 km
>= 3000ft
5 / 8 km
1000 / 3000 ft
1500m / 5 km
500 / 1000 ft
800 / 1500m
200 / 500 ft
< 800m
< 200 ft
Simboli :   Temporali  Nebbia  Neve Forte  Precipitazioni Forti  Vento > 20 kt






- Altitudine del aeroporto : 131 ft
- Codice IATA : GLH


KGLH - Mid Delta Regional

ULTIMO METAR :
  • 070053Z AUTO 04004KT 10SM CLR 13/10 A3019 RMK AO2 SLP233 T01280100

METARs OBSOLETI :
  • 062353Z 05005KT 10SM BKN030 14/11 A3017 RMK AO2 SLP225 T01390106 10178 20139 51016
  • 062253Z 04006KT 10SM BKN027 15/11 A3015 RMK AO2 SLP216 T01500111
  • 062208Z 01007KT 10SM BKN025 16/11 A3013 RMK AO2 T01610111

TAF KGLH
Valido dal 07 a 00 ore il 08 a 00 ore UTC


062346Z 0700/0724 03010KT P6SM BKN025
TEMPO 0702/0705 4SM BR
FM070500 02010KT 3SM BR BKN030
FM071200 02009KT P6SM OVC025
FM071300 03008KT P6SM OVC009



MetMap, La meteo Aeronautica in un colpo d'occhio ! - Copyright ORBIFLY Dicembre 2007 - Disclaimer

ORBIFLY MET'MAP TEAM :

Programmazione e sviluppo : Alexandra Zaïnal
Concezione : Baudouin d'Aumeries
Aiuto per la programmazione : Marc-Olivier Méhu
Supporto tecnico e logistico : Manuel Goepfert
Aiuto per la traduzione : Arnaldo La Scala

Contatto : metmap@orbifly.com




FONTI E CREDITI :

   NOAA       Earth
Advisory